sensor_id;sensor_type;location;lat;lon;timestamp;P1;durP1;ratioP1;P2;durP2;ratioP2
50555;SDS011;36508;52.512;13.450;2023-04-01T00:01:21;7.10;;;5.00;;
50555;SDS011;36508;52.512;13.450;2023-04-01T00:03:47;5.43;;;4.80;;
50555;SDS011;36508;52.512;13.450;2023-04-01T00:06:13;2.80;;;2.60;;
50555;SDS011;36508;52.512;13.450;2023-04-01T00:08:40;3.23;;;3.03;;
50555;SDS011;36508;52.512;13.450;2023-04-01T00:11:06;3.57;;;3.17;;
50555;SDS011;36508;52.512;13.450;2023-04-01T00:13:32;2.90;;;2.70;;
50555;SDS011;36508;52.512;13.450;2023-04-01T00:15:58;3.83;;;3.53;;
50555;SDS011;36508;52.512;13.450;2023-04-01T00:18:24;4.33;;;3.93;;
50555;SDS011;36508;52.512;13.450;2023-04-01T00:20:51;3.27;;;3.03;;
50555;SDS011;36508;52.512;13.450;2023-04-01T00:23:17;2.60;;;2.37;;
50555;SDS011;36508;52.512;13.450;2023-04-01T00:25:44;4.33;;;2.73;;
50555;SDS011;36508;52.512;13.450;2023-04-01T00:28:11;6.60;;;4.73;;
50555;SDS011;36508;52.512;13.450;2023-04-01T00:30:37;4.30;;;3.40;;
50555;SDS011;36508;52.512;13.450;2023-04-01T00:33:03;6.77;;;3.80;;
50555;SDS011;36508;52.512;13.450;2023-04-01T00:35:29;8.20;;;7.40;;
50555;SDS011;36508;52.512;13.450;2023-04-01T00:37:58;6.73;;;5.80;;
50555;SDS011;36508;52.512;13.450;2023-04-01T00:40:31;4.90;;;3.10;;
50555;SDS011;36508;52.512;13.450;2023-04-01T00:43:00;2.80;;;2.70;;
50555;SDS011;36508;52.512;13.450;2023-04-01T00:45:30;2.63;;;2.47;;
50555;SDS011;36508;52.512;13.450;2023-04-01T00:47:56;2.80;;;2.50;;
50555;SDS011;36508;52.512;13.450;2023-04-01T00:50:24;3.30;;;2.97;;
50555;SDS011;36508;52.512;13.450;2023-04-01T00:52:51;2.90;;;2.70;;
50555;SDS011;36508;52.512;13.450;2023-04-01T00:55:18;3.83;;;3.20;;
50555;SDS011;36508;52.512;13.450;2023-04-01T00:57:46;3.40;;;3.10;;
50555;SDS011;36508;52.512;13.450;2023-04-01T01:00:13;3.20;;;3.00;;
50555;SDS011;36508;52.512;13.450;2023-04-01T01:02:41;4.00;;;3.13;;
50555;SDS011;36508;52.512;13.450;2023-04-01T01:05:11;4.60;;;3.27;;
50555;SDS011;36508;52.512;13.450;2023-04-01T01:07:55;2.80;;;2.63;;
50555;SDS011;36508;52.512;13.450;2023-04-01T01:10:42;3.70;;;3.40;;
50555;SDS011;36508;52.512;13.450;2023-04-01T01:16:04;8.97;;;8.20;;
50555;SDS011;36508;52.512;13.450;2023-04-01T01:18:43;7.80;;;3.17;;
50555;SDS011;36508;52.512;13.450;2023-04-01T01:27:02;3.90;;;3.50;;
50555;SDS011;36508;52.512;13.450;2023-04-01T01:37:29;3.43;;;3.10;;
50555;SDS011;36508;52.512;13.450;2023-04-01T01:39:58;5.27;;;3.17;;
50555;SDS011;36508;52.512;13.450;2023-04-01T01:42:27;2.93;;;2.73;;
50555;SDS011;36508;52.512;13.450;2023-04-01T01:44:55;4.87;;;2.77;;
50555;SDS011;36508;52.512;13.450;2023-04-01T01:47:24;3.20;;;2.90;;
50555;SDS011;36508;52.512;13.450;2023-04-01T01:49:51;3.13;;;2.93;;
50555;SDS011;36508;52.512;13.450;2023-04-01T01:52:19;5.63;;;5.10;;
50555;SDS011;36508;52.512;13.450;2023-04-01T01:54:51;4.40;;;3.30;;
50555;SDS011;36508;52.512;13.450;2023-04-01T01:57:19;6.27;;;3.17;;
50555;SDS011;36508;52.512;13.450;2023-04-01T01:59:49;4.93;;;2.60;;
50555;SDS011;36508;52.512;13.450;2023-04-01T02:02:21;3.77;;;3.47;;
50555;SDS011;36508;52.512;13.450;2023-04-01T02:04:49;4.43;;;3.73;;
50555;SDS011;36508;52.512;13.450;2023-04-01T02:07:20;9.20;;;4.30;;
50555;SDS011;36508;52.512;13.450;2023-04-01T02:09:50;3.47;;;2.50;;
50555;SDS011;36508;52.512;13.450;2023-04-01T02:12:16;4.50;;;2.67;;
50555;SDS011;36508;52.512;13.450;2023-04-01T02:14:57;3.83;;;2.60;;
50555;SDS011;36508;52.512;13.450;2023-04-01T02:17:37;4.33;;;2.90;;
50555;SDS011;36508;52.512;13.450;2023-04-01T02:20:12;5.33;;;3.27;;
50555;SDS011;36508;52.512;13.450;2023-04-01T02:22:55;4.93;;;3.83;;
50555;SDS011;36508;52.512;13.450;2023-04-01T02:25:29;5.83;;;3.70;;
50555;SDS011;36508;52.512;13.450;2023-04-01T02:27:58;4.53;;;3.60;;
50555;SDS011;36508;52.512;13.450;2023-04-01T02:30:29;8.67;;;4.23;;
50555;SDS011;36508;52.512;13.450;2023-04-01T02:32:56;3.60;;;3.00;;
50555;SDS011;36508;52.512;13.450;2023-04-01T02:35:23;4.10;;;2.57;;
50555;SDS011;36508;52.512;13.450;2023-04-01T02:37:50;3.83;;;3.30;;
50555;SDS011;36508;52.512;13.450;2023-04-01T02:40:17;6.33;;;4.20;;
50555;SDS011;36508;52.512;13.450;2023-04-01T02:42:43;9.20;;;5.90;;
50555;SDS011;36508;52.512;13.450;2023-04-01T02:45:10;8.43;;;4.67;;
50555;SDS011;36508;52.512;13.450;2023-04-01T02:47:36;8.10;;;6.50;;
50555;SDS011;36508;52.512;13.450;2023-04-01T02:50:02;9.63;;;3.60;;
50555;SDS011;36508;52.512;13.450;2023-04-01T02:52:29;11.53;;;4.50;;
50555;SDS011;36508;52.512;13.450;2023-04-01T02:54:55;8.20;;;6.27;;
50555;SDS011;36508;52.512;13.450;2023-04-01T02:57:22;4.10;;;3.73;;
50555;SDS011;36508;52.512;13.450;2023-04-01T02:59:48;6.80;;;5.30;;
50555;SDS011;36508;52.512;13.450;2023-04-01T03:02:14;10.80;;;6.93;;
50555;SDS011;36508;52.512;13.450;2023-04-01T03:04:40;6.20;;;4.40;;
50555;SDS011;36508;52.512;13.450;2023-04-01T03:07:06;6.93;;;4.50;;
50555;SDS011;36508;52.512;13.450;2023-04-01T03:09:33;12.13;;;6.23;;
50555;SDS011;36508;52.512;13.450;2023-04-01T03:11:59;4.70;;;3.23;;
50555;SDS011;36508;52.512;13.450;2023-04-01T03:14:25;4.97;;;3.87;;
50555;SDS011;36508;52.512;13.450;2023-04-01T03:16:50;3.00;;;2.57;;
50555;SDS011;36508;52.512;13.450;2023-04-01T03:19:16;4.23;;;2.77;;
50555;SDS011;36508;52.512;13.450;2023-04-01T03:21:42;7.13;;;6.53;;
50555;SDS011;36508;52.512;13.450;2023-04-01T03:24:07;3.63;;;3.43;;
50555;SDS011;36508;52.512;13.450;2023-04-01T03:26:33;5.83;;;2.97;;
50555;SDS011;36508;52.512;13.450;2023-04-01T03:28:59;3.03;;;2.47;;
50555;SDS011;36508;52.512;13.450;2023-04-01T03:31:24;2.80;;;2.60;;
50555;SDS011;36508;52.512;13.450;2023-04-01T03:33:50;4.53;;;3.97;;
50555;SDS011;36508;52.512;13.450;2023-04-01T03:36:16;3.87;;;3.30;;
50555;SDS011;36508;52.512;13.450;2023-04-01T03:38:43;4.40;;;4.00;;
50555;SDS011;36508;52.512;13.450;2023-04-01T03:41:13;4.53;;;4.20;;
50555;SDS011;36508;52.512;13.450;2023-04-01T03:43:42;3.37;;;3.00;;
50555;SDS011;36508;52.512;13.450;2023-04-01T03:46:09;4.23;;;3.50;;
50555;SDS011;36508;52.512;13.450;2023-04-01T03:48:35;4.20;;;3.53;;
50555;SDS011;36508;52.512;13.450;2023-04-01T03:51:01;4.90;;;3.50;;
50555;SDS011;36508;52.512;13.450;2023-04-01T03:53:27;4.60;;;3.03;;
50555;SDS011;36508;52.512;13.450;2023-04-01T03:55:53;3.30;;;2.70;;
50555;SDS011;36508;52.512;13.450;2023-04-01T03:58:18;9.03;;;5.83;;
50555;SDS011;36508;52.512;13.450;2023-04-01T04:00:44;5.70;;;3.50;;
50555;SDS011;36508;52.512;13.450;2023-04-01T04:03:10;5.77;;;3.57;;
50555;SDS011;36508;52.512;13.450;2023-04-01T04:05:36;3.80;;;3.50;;
50555;SDS011;36508;52.512;13.450;2023-04-01T04:08:02;3.60;;;3.27;;
50555;SDS011;36508;52.512;13.450;2023-04-01T04:10:28;4.50;;;3.03;;
50555;SDS011;36508;52.512;13.450;2023-04-01T04:12:54;6.73;;;4.07;;
50555;SDS011;36508;52.512;13.450;2023-04-01T04:15:20;3.73;;;3.40;;
50555;SDS011;36508;52.512;13.450;2023-04-01T04:17:47;3.60;;;3.30;;
50555;SDS011;36508;52.512;13.450;2023-04-01T04:20:12;8.70;;;3.40;;
50555;SDS011;36508;52.512;13.450;2023-04-01T04:22:38;6.33;;;3.03;;
50555;SDS011;36508;52.512;13.450;2023-04-01T04:25:04;4.00;;;3.70;;
50555;SDS011;36508;52.512;13.450;2023-04-01T04:27:30;3.13;;;2.70;;
50555;SDS011;36508;52.512;13.450;2023-04-01T04:29:56;8.47;;;5.27;;
50555;SDS011;36508;52.512;13.450;2023-04-01T04:32:22;3.73;;;3.43;;
50555;SDS011;36508;52.512;13.450;2023-04-01T04:34:47;5.43;;;2.77;;
50555;SDS011;36508;52.512;13.450;2023-04-01T04:37:13;4.40;;;3.40;;
50555;SDS011;36508;52.512;13.450;2023-04-01T04:39:38;3.67;;;3.37;;
50555;SDS011;36508;52.512;13.450;2023-04-01T04:42:05;4.90;;;3.77;;
50555;SDS011;36508;52.512;13.450;2023-04-01T04:44:31;7.43;;;5.17;;
50555;SDS011;36508;52.512;13.450;2023-04-01T04:46:56;5.63;;;5.00;;
50555;SDS011;36508;52.512;13.450;2023-04-01T04:49:22;7.80;;;4.83;;
50555;SDS011;36508;52.512;13.450;2023-04-01T04:51:48;4.37;;;3.97;;
50555;SDS011;36508;52.512;13.450;2023-04-01T04:54:13;7.90;;;5.27;;
50555;SDS011;36508;52.512;13.450;2023-04-01T04:56:39;4.60;;;3.57;;
50555;SDS011;36508;52.512;13.450;2023-04-01T04:59:05;4.33;;;4.03;;
50555;SDS011;36508;52.512;13.450;2023-04-01T05:01:31;10.00;;;3.97;;
50555;SDS011;36508;52.512;13.450;2023-04-01T05:03:58;8.47;;;4.57;;
50555;SDS011;36508;52.512;13.450;2023-04-01T05:06:24;7.13;;;4.70;;
50555;SDS011;36508;52.512;13.450;2023-04-01T05:08:50;5.23;;;3.70;;
50555;SDS011;36508;52.512;13.450;2023-04-01T05:11:17;6.40;;;3.67;;
50555;SDS011;36508;52.512;13.450;2023-04-01T05:13:45;4.93;;;3.60;;
50555;SDS011;36508;52.512;13.450;2023-04-01T05:16:11;8.40;;;7.70;;
50555;SDS011;36508;52.512;13.450;2023-04-01T05:18:42;3.87;;;3.10;;
50555;SDS011;36508;52.512;13.450;2023-04-01T05:21:09;4.37;;;3.97;;
50555;SDS011;36508;52.512;13.450;2023-04-01T05:23:35;3.80;;;3.40;;
50555;SDS011;36508;52.512;13.450;2023-04-01T05:26:05;7.60;;;4.60;;
50555;SDS011;36508;52.512;13.450;2023-04-01T05:28:32;5.47;;;3.97;;
50555;SDS011;36508;52.512;13.450;2023-04-01T05:31:01;8.33;;;4.37;;
50555;SDS011;36508;52.512;13.450;2023-04-01T05:33:27;7.67;;;5.00;;
50555;SDS011;36508;52.512;13.450;2023-04-01T05:35:54;3.90;;;3.53;;
50555;SDS011;36508;52.512;13.450;2023-04-01T05:38:21;3.83;;;3.53;;
50555;SDS011;36508;52.512;13.450;2023-04-01T05:40:48;10.70;;;5.40;;
50555;SDS011;36508;52.512;13.450;2023-04-01T05:43:14;5.40;;;3.70;;
50555;SDS011;36508;52.512;13.450;2023-04-01T05:45:40;7.70;;;4.00;;
50555;SDS011;36508;52.512;13.450;2023-04-01T05:48:06;3.30;;;3.10;;
50555;SDS011;36508;52.512;13.450;2023-04-01T05:50:32;4.43;;;3.73;;
50555;SDS011;36508;52.512;13.450;2023-04-01T05:52:58;6.80;;;4.60;;
50555;SDS011;36508;52.512;13.450;2023-04-01T05:55:23;6.27;;;3.77;;
50555;SDS011;36508;52.512;13.450;2023-04-01T05:57:49;5.30;;;4.83;;
50555;SDS011;36508;52.512;13.450;2023-04-01T06:00:15;5.53;;;4.23;;
50555;SDS011;36508;52.512;13.450;2023-04-01T06:02:42;7.50;;;3.80;;
50555;SDS011;36508;52.512;13.450;2023-04-01T06:08:08;4.70;;;4.30;;
50555;SDS011;36508;52.512;13.450;2023-04-01T06:13:45;10.77;;;6.23;;
50555;SDS011;36508;52.512;13.450;2023-04-01T06:40:54;4.73;;;4.00;;
50555;SDS011;36508;52.512;13.450;2023-04-01T06:46:45;5.30;;;4.80;;
50555;SDS011;36508;52.512;13.450;2023-04-01T06:52:26;5.30;;;5.00;;
50555;SDS011;36508;52.512;13.450;2023-04-01T06:57:42;6.83;;;5.50;;
50555;SDS011;36508;52.512;13.450;2023-04-01T07:00:13;5.73;;;5.33;;
50555;SDS011;36508;52.512;13.450;2023-04-01T07:05:56;8.07;;;7.27;;
50555;SDS011;36508;52.512;13.450;2023-04-01T07:08:27;6.70;;;6.17;;
50555;SDS011;36508;52.512;13.450;2023-04-01T07:16:17;5.40;;;5.00;;
50555;SDS011;36508;52.512;13.450;2023-04-01T07:19:05;5.87;;;5.47;;
50555;SDS011;36508;52.512;13.450;2023-04-01T07:21:56;6.07;;;5.57;;
50555;SDS011;36508;52.512;13.450;2023-04-01T07:24:36;10.37;;;9.27;;
50555;SDS011;36508;52.512;13.450;2023-04-01T07:27:07;5.57;;;5.00;;
50555;SDS011;36508;52.512;13.450;2023-04-01T07:29:35;6.70;;;5.93;;
50555;SDS011;36508;52.512;13.450;2023-04-01T07:47:40;7.07;;;6.43;;
50555;SDS011;36508;52.512;13.450;2023-04-01T07:55:12;12.00;;;10.90;;
50555;SDS011;36508;52.512;13.450;2023-04-01T07:57:52;8.03;;;7.20;;
50555;SDS011;36508;52.512;13.450;2023-04-01T08:00:24;7.27;;;6.67;;
50555;SDS011;36508;52.512;13.450;2023-04-01T08:03:21;14.83;;;12.67;;
50555;SDS011;36508;52.512;13.450;2023-04-01T08:08:53;9.23;;;8.17;;
50555;SDS011;36508;52.512;13.450;2023-04-01T08:11:25;9.47;;;8.77;;
50555;SDS011;36508;52.512;13.450;2023-04-01T08:14:12;5.90;;;5.50;;
50555;SDS011;36508;52.512;13.450;2023-04-01T08:16:46;6.63;;;6.13;;
50555;SDS011;36508;52.512;13.450;2023-04-01T08:22:02;5.77;;;5.10;;
50555;SDS011;36508;52.512;13.450;2023-04-01T08:27:06;7.30;;;6.60;;
50555;SDS011;36508;52.512;13.450;2023-04-01T08:29:46;7.67;;;6.83;;
50555;SDS011;36508;52.512;13.450;2023-04-01T08:32:24;5.70;;;5.20;;
50555;SDS011;36508;52.512;13.450;2023-04-01T08:35:02;7.63;;;7.03;;
50555;SDS011;36508;52.512;13.450;2023-04-01T08:37:51;7.83;;;7.13;;
50555;SDS011;36508;52.512;13.450;2023-04-01T08:43:09;8.20;;;7.50;;
50555;SDS011;36508;52.512;13.450;2023-04-01T08:51:36;8.30;;;7.50;;
50555;SDS011;36508;52.512;13.450;2023-04-01T08:54:29;7.47;;;6.87;;
50555;SDS011;36508;52.512;13.450;2023-04-01T09:19:02;9.37;;;8.67;;
50555;SDS011;36508;52.512;13.450;2023-04-01T09:27:33;8.77;;;8.07;;
50555;SDS011;36508;52.512;13.450;2023-04-01T09:36:02;10.77;;;10.07;;
50555;SDS011;36508;52.512;13.450;2023-04-01T09:38:21;9.90;;;9.10;;
50555;SDS011;36508;52.512;13.450;2023-04-01T09:46:15;18.70;;;17.00;;
50555;SDS011;36508;52.512;13.450;2023-04-01T09:55:19;10.70;;;9.90;;
50555;SDS011;36508;52.512;13.450;2023-04-01T10:00:39;9.67;;;8.87;;
50555;SDS011;36508;52.512;13.450;2023-04-01T10:09:28;11.83;;;10.90;;
50555;SDS011;36508;52.512;13.450;2023-04-01T10:12:22;10.80;;;10.00;;
50555;SDS011;36508;52.512;13.450;2023-04-01T10:20:38;9.93;;;9.23;;
50555;SDS011;36508;52.512;13.450;2023-04-01T10:48:48;8.93;;;8.40;;
50555;SDS011;36508;52.512;13.450;2023-04-01T10:57:10;6.97;;;6.57;;
50555;SDS011;36508;52.512;13.450;2023-04-01T11:34:39;4.30;;;4.10;;
50555;SDS011;36508;52.512;13.450;2023-04-01T11:46:10;3.97;;;3.63;;
50555;SDS011;36508;52.512;13.450;2023-04-01T11:48:46;3.50;;;3.30;;
50555;SDS011;36508;52.512;13.450;2023-04-01T12:00:10;3.90;;;3.60;;
50555;SDS011;36508;52.512;13.450;2023-04-01T12:06:00;4.50;;;4.27;;
50555;SDS011;36508;52.512;13.450;2023-04-01T12:08:33;5.07;;;4.67;;
50555;SDS011;36508;52.512;13.450;2023-04-01T12:19:51;4.73;;;4.33;;
50555;SDS011;36508;52.512;13.450;2023-04-01T12:27:59;6.07;;;5.57;;
50555;SDS011;36508;52.512;13.450;2023-04-01T12:30:42;5.73;;;4.97;;
50555;SDS011;36508;52.512;13.450;2023-04-01T12:36:18;5.53;;;5.23;;
50555;SDS011;36508;52.512;13.450;2023-04-01T12:56:11;6.70;;;6.30;;
50555;SDS011;36508;52.512;13.450;2023-04-01T13:17:53;14.63;;;13.50;;
50555;SDS011;36508;52.512;13.450;2023-04-01T13:20:29;12.27;;;11.20;;
50555;SDS011;36508;52.512;13.450;2023-04-01T13:23:06;12.03;;;11.20;;
50555;SDS011;36508;52.512;13.450;2023-04-01T13:25:54;10.97;;;10.27;;
50555;SDS011;36508;52.512;13.450;2023-04-01T13:28:39;10.80;;;9.80;;
50555;SDS011;36508;52.512;13.450;2023-04-01T13:37:02;10.10;;;9.20;;
50555;SDS011;36508;52.512;13.450;2023-04-01T14:02:13;10.03;;;9.30;;
50555;SDS011;36508;52.512;13.450;2023-04-01T14:04:58;10.60;;;9.53;;
50555;SDS011;36508;52.512;13.450;2023-04-01T14:10:24;12.37;;;11.57;;
50555;SDS011;36508;52.512;13.450;2023-04-01T14:15:59;8.93;;;8.43;;
50555;SDS011;36508;52.512;13.450;2023-04-01T14:21:33;11.53;;;10.63;;
50555;SDS011;36508;52.512;13.450;2023-04-01T14:33:10;10.07;;;9.27;;
50555;SDS011;36508;52.512;13.450;2023-04-01T14:38:25;8.33;;;7.83;;
50555;SDS011;36508;52.512;13.450;2023-04-01T14:41:00;9.10;;;8.40;;
50555;SDS011;36508;52.512;13.450;2023-04-01T14:43:30;8.60;;;8.00;;
50555;SDS011;36508;52.512;13.450;2023-04-01T14:49:04;7.93;;;7.40;;
50555;SDS011;36508;52.512;13.450;2023-04-01T14:51:39;8.50;;;8.00;;
50555;SDS011;36508;52.512;13.450;2023-04-01T14:54:16;7.67;;;7.27;;
50555;SDS011;36508;52.512;13.450;2023-04-01T14:57:33;7.70;;;7.27;;
50555;SDS011;36508;52.512;13.450;2023-04-01T14:59:39;9.23;;;8.63;;
50555;SDS011;36508;52.512;13.450;2023-04-01T15:11:51;8.53;;;8.03;;
50555;SDS011;36508;52.512;13.450;2023-04-01T15:17:23;8.20;;;7.67;;
50555;SDS011;36508;52.512;13.450;2023-04-01T15:23:09;9.00;;;8.30;;
50555;SDS011;36508;52.512;13.450;2023-04-01T15:26:18;9.50;;;8.80;;
50555;SDS011;36508;52.512;13.450;2023-04-01T15:32:19;7.73;;;7.13;;
50555;SDS011;36508;52.512;13.450;2023-04-01T15:43:42;6.93;;;6.53;;
50555;SDS011;36508;52.512;13.450;2023-04-01T15:54:52;6.63;;;6.23;;
50555;SDS011;36508;52.512;13.450;2023-04-01T16:00:29;7.10;;;6.60;;
50555;SDS011;36508;52.512;13.450;2023-04-01T16:08:58;9.30;;;8.60;;
50555;SDS011;36508;52.512;13.450;2023-04-01T16:30:59;7.97;;;7.47;;
50555;SDS011;36508;52.512;13.450;2023-04-01T16:36:09;8.17;;;7.60;;
50555;SDS011;36508;52.512;13.450;2023-04-01T16:38:41;8.37;;;7.73;;
50555;SDS011;36508;52.512;13.450;2023-04-01T16:42:17;8.57;;;7.97;;
50555;SDS011;36508;52.512;13.450;2023-04-01T16:44:48;8.83;;;8.23;;
50555;SDS011;36508;52.512;13.450;2023-04-01T16:47:40;7.90;;;7.27;;
50555;SDS011;36508;52.512;13.450;2023-04-01T16:58:48;7.80;;;7.10;;
50555;SDS011;36508;52.512;13.450;2023-04-01T17:01:29;6.73;;;6.33;;
50555;SDS011;36508;52.512;13.450;2023-04-01T17:04:19;7.43;;;6.87;;
50555;SDS011;36508;52.512;13.450;2023-04-01T17:07:36;9.33;;;8.57;;
50555;SDS011;36508;52.512;13.450;2023-04-01T17:10:21;7.60;;;6.90;;
50555;SDS011;36508;52.512;13.450;2023-04-01T17:15:32;7.60;;;7.20;;
50555;SDS011;36508;52.512;13.450;2023-04-01T17:18:13;7.53;;;6.93;;
50555;SDS011;36508;52.512;13.450;2023-04-01T17:32:34;8.50;;;7.97;;
50555;SDS011;36508;52.512;13.450;2023-04-01T17:35:35;8.57;;;7.97;;
50555;SDS011;36508;52.512;13.450;2023-04-01T17:41:02;6.73;;;6.33;;
50555;SDS011;36508;52.512;13.450;2023-04-01T17:43:52;8.47;;;7.90;;
50555;SDS011;36508;52.512;13.450;2023-04-01T17:55:15;10.57;;;9.77;;
50555;SDS011;36508;52.512;13.450;2023-04-01T18:17:23;7.80;;;7.13;;
50555;SDS011;36508;52.512;13.450;2023-04-01T18:28:43;9.30;;;8.10;;
50555;SDS011;36508;52.512;13.450;2023-04-01T18:38:57;7.00;;;6.37;;
50555;SDS011;36508;52.512;13.450;2023-04-01T18:53:00;6.93;;;6.33;;
50555;SDS011;36508;52.512;13.450;2023-04-01T18:55:57;5.90;;;5.47;;
50555;SDS011;36508;52.512;13.450;2023-04-01T18:58:28;5.53;;;5.03;;
50555;SDS011;36508;52.512;13.450;2023-04-01T19:03:52;5.80;;;5.30;;
50555;SDS011;36508;52.512;13.450;2023-04-01T19:09:19;7.47;;;6.87;;
50555;SDS011;36508;52.512;13.450;2023-04-01T19:25:43;12.03;;;9.97;;
50555;SDS011;36508;52.512;13.450;2023-04-01T19:28:26;14.67;;;10.70;;
50555;SDS011;36508;52.512;13.450;2023-04-01T19:33:59;10.67;;;9.67;;
50555;SDS011;36508;52.512;13.450;2023-04-01T19:36:40;13.97;;;12.37;;
50555;SDS011;36508;52.512;13.450;2023-04-01T19:39:36;14.70;;;13.37;;
50555;SDS011;36508;52.512;13.450;2023-04-01T19:45:00;12.07;;;10.97;;
50555;SDS011;36508;52.512;13.450;2023-04-01T19:48:05;10.67;;;9.63;;
50555;SDS011;36508;52.512;13.450;2023-04-01T19:53:37;11.10;;;9.23;;
50555;SDS011;36508;52.512;13.450;2023-04-01T20:04:49;10.63;;;9.27;;
50555;SDS011;36508;52.512;13.450;2023-04-01T20:07:16;10.97;;;9.97;;
50555;SDS011;36508;52.512;13.450;2023-04-01T20:12:45;7.43;;;6.93;;
50555;SDS011;36508;52.512;13.450;2023-04-01T20:15:59;9.57;;;8.73;;
50555;SDS011;36508;52.512;13.450;2023-04-01T20:21:36;13.93;;;12.70;;
50555;SDS011;36508;52.512;13.450;2023-04-01T20:26:34;9.50;;;8.57;;
50555;SDS011;36508;52.512;13.450;2023-04-01T20:31:54;8.83;;;8.13;;
50555;SDS011;36508;52.512;13.450;2023-04-01T20:40:32;9.20;;;8.43;;
50555;SDS011;36508;52.512;13.450;2023-04-01T20:43:20;15.50;;;8.43;;
50555;SDS011;36508;52.512;13.450;2023-04-01T20:46:16;12.47;;;9.50;;
50555;SDS011;36508;52.512;13.450;2023-04-01T20:51:53;9.33;;;8.43;;
50555;SDS011;36508;52.512;13.450;2023-04-01T20:54:46;9.47;;;8.57;;
50555;SDS011;36508;52.512;13.450;2023-04-01T20:57:44;10.30;;;9.30;;
50555;SDS011;36508;52.512;13.450;2023-04-01T21:03:30;8.57;;;7.77;;
50555;SDS011;36508;52.512;13.450;2023-04-01T21:26:47;8.93;;;8.07;;
50555;SDS011;36508;52.512;13.450;2023-04-01T21:42:09;7.67;;;7.07;;
50555;SDS011;36508;52.512;13.450;2023-04-01T21:47:28;5.93;;;5.53;;
50555;SDS011;36508;52.512;13.450;2023-04-01T21:58:20;6.57;;;4.80;;
50555;SDS011;36508;52.512;13.450;2023-04-01T22:12:35;6.10;;;5.60;;
50555;SDS011;36508;52.512;13.450;2023-04-01T22:17:45;7.27;;;6.60;;
50555;SDS011;36508;52.512;13.450;2023-04-01T22:20:25;6.60;;;5.90;;
50555;SDS011;36508;52.512;13.450;2023-04-01T22:25:32;6.97;;;6.07;;
50555;SDS011;36508;52.512;13.450;2023-04-01T22:30:59;6.97;;;6.27;;
50555;SDS011;36508;52.512;13.450;2023-04-01T22:42:19;6.33;;;5.83;;
50555;SDS011;36508;52.512;13.450;2023-04-01T22:50:18;5.43;;;4.80;;
50555;SDS011;36508;52.512;13.450;2023-04-01T22:52:46;4.60;;;4.33;;
50555;SDS011;36508;52.512;13.450;2023-04-01T22:55:22;5.27;;;4.87;;
50555;SDS011;36508;52.512;13.450;2023-04-01T22:58:56;5.47;;;5.07;;
50555;SDS011;36508;52.512;13.450;2023-04-01T23:00:56;5.63;;;5.23;;
50555;SDS011;36508;52.512;13.450;2023-04-01T23:03:33;4.63;;;4.30;;
50555;SDS011;36508;52.512;13.450;2023-04-01T23:06:04;4.93;;;4.47;;
50555;SDS011;36508;52.512;13.450;2023-04-01T23:11:14;5.30;;;4.90;;
50555;SDS011;36508;52.512;13.450;2023-04-01T23:14:39;5.20;;;4.70;;
50555;SDS011;36508;52.512;13.450;2023-04-01T23:17:22;4.80;;;4.27;;
50555;SDS011;36508;52.512;13.450;2023-04-01T23:23:28;6.30;;;5.70;;
50555;SDS011;36508;52.512;13.450;2023-04-01T23:28:49;6.13;;;4.70;;
50555;SDS011;36508;52.512;13.450;2023-04-01T23:31:34;4.33;;;3.93;;
50555;SDS011;36508;52.512;13.450;2023-04-01T23:36:37;5.60;;;5.10;;
50555;SDS011;36508;52.512;13.450;2023-04-01T23:39:26;6.87;;;3.70;;
50555;SDS011;36508;52.512;13.450;2023-04-01T23:42:00;4.33;;;3.83;;
50555;SDS011;36508;52.512;13.450;2023-04-01T23:44:45;3.97;;;3.63;;
50555;SDS011;36508;52.512;13.450;2023-04-01T23:47:14;4.63;;;4.37;;
50555;SDS011;36508;52.512;13.450;2023-04-01T23:49:47;4.70;;;4.40;;
50555;SDS011;36508;52.512;13.450;2023-04-01T23:52:19;5.67;;;5.27;;
50555;SDS011;36508;52.512;13.450;2023-04-01T23:54:57;5.57;;;5.20;;
50555;SDS011;36508;52.512;13.450;2023-04-01T23:57:32;6.60;;;6.13;;
